Time;durP1;ratioP1;P1;durP2;ratioP2;P2;SDS_P1;SDS_P2;PMS_P1;PMS_P2;Temp;Humidity;BMP_temperature;BMP_pressure;BME280_temperature;BME280_humidity;BME280_pressure;Samples;Min_cycle;Max_cycle;Signal;HPM_P1;HPM_P2
2023/09/27 00:00:17;;;;;;;;;;;16.40;94.90;;;;;;5089327;28;19922;-71
2023/09/27 00:02:43;;;;;;;;;;;16.40;95.10;;;;;;5092956;28;20368;-71
2023/09/27 00:05:10;;;;;;;;;;;16.30;95.00;;;;;;5089079;28;19908;-71
2023/09/27 00:07:37;;;;;;;;;;;16.30;95.10;;;;;;5092903;28;19908;-71
2023/09/27 00:10:06;;;;;;;;;;;16.30;95.00;;;;;;5088824;28;20377;-71
2023/09/27 00:12:32;;;;;;;;;;;16.30;95.00;;;;;;5084573;28;19909;-71
2023/09/27 00:14:57;;;;;;;;;;;16.30;95.00;;;;;;5088920;28;19912;-71
2023/09/27 00:17:23;;;;;;;;;;;16.20;94.90;;;;;;5088738;28;19995;-71
2023/09/27 00:19:49;;;;;;;;;;;16.20;94.90;;;;;;5089161;28;20353;-71
2023/09/27 00:22:14;;;;;;;;;;;16.20;95.30;;;;;;5090424;28;19912;-71
2023/09/27 00:24:39;;;;;;;;;;;16.20;95.10;;;;;;5090039;28;20340;-71
2023/09/27 00:27:05;;;;;;;;;;;16.20;95.00;;;;;;5089040;28;19916;-71
2023/09/27 00:29:31;;;;;;;;;;;16.20;95.00;;;;;;5097392;28;19915;-71
2023/09/27 00:31:57;;;;;;;;;;;16.20;94.90;;;;;;5089005;28;19990;-71
2023/09/27 00:34:22;;;;;;;;;;;16.20;95.00;;;;;;5089367;28;20327;-71
2023/09/27 00:36:49;;;;;;;;;;;16.20;95.00;;;;;;5089767;28;20357;-71
2023/09/27 00:39:14;;;;;;;;;;;16.20;94.90;;;;;;5093257;28;19915;-71
2023/09/27 00:41:40;;;;;;;;;;;16.10;95.00;;;;;;5092560;28;20046;-71
2023/09/27 00:44:05;;;;;;;;;;;16.10;94.90;;;;;;5091285;28;19964;-71
2023/09/27 00:46:31;;;;;;;;;;;16.10;95.00;;;;;;5100672;28;20368;-72
2023/09/27 00:48:57;;;;;;;;;;;16.10;94.90;;;;;;5092740;28;19983;-72
2023/09/27 00:51:22;;;;;;;;;;;16.10;94.90;;;;;;5092330;28;20573;-72
2023/09/27 00:53:48;;;;;;;;;;;16.10;95.00;;;;;;5088804;28;19912;-72
2023/09/27 00:56:14;;;;;;;;;;;16.10;94.90;;;;;;5092642;28;19923;-71
2023/09/27 00:58:40;;;;;;;;;;;16.10;95.00;;;;;;5101008;28;19916;-71
2023/09/27 01:01:06;;;;;;;;;;;16.10;95.00;;;;;;5092799;28;20360;-71
2023/09/27 01:03:32;;;;;;;;;;;16.00;95.00;;;;;;5092702;28;19916;-72
2023/09/27 01:05:57;;;;;;;;;;;16.00;94.90;;;;;;5096027;28;20396;-71
2023/09/27 01:08:23;;;;;;;;;;;16.00;95.00;;;;;;5092799;28;19912;-71
2023/09/27 01:10:49;;;;;;;;;;;16.00;95.00;;;;;;5092080;28;20501;-71
2023/09/27 01:13:14;;;;;;;;;;;16.00;95.00;;;;;;5092583;28;19912;-71
2023/09/27 01:15:40;;;;;;;;;;;16.00;95.00;;;;;;5092221;28;19922;-71
2023/09/27 01:18:05;;;;;;;;;;;16.00;95.00;;;;;;5092536;28;19931;-72
2023/09/27 01:20:32;;;;;;;;;;;16.00;95.10;;;;;;5092968;28;20419;-72
2023/09/27 01:23:02;;;;;;;;;;;16.00;95.00;;;;;;5097602;28;19916;-72
2023/09/27 01:25:35;;;;;;;;;;;16.00;95.10;;;;;;5091661;28;20355;-71
2023/09/27 01:28:02;;;;;;;;;;;16.00;95.20;;;;;;5097115;28;19916;-71
2023/09/27 01:30:34;;;;;;;;;;;15.90;95.00;;;;;;5096183;28;19908;-71
2023/09/27 01:33:00;;;;;;;;;;;15.90;95.10;;;;;;5092094;28;19916;-71
2023/09/27 01:35:26;;;;;;;;;;;15.90;95.10;;;;;;5091807;28;19908;-71
2023/09/27 01:37:52;;;;;;;;;;;15.90;95.10;;;;;;5096325;28;19983;-71
2023/09/27 01:40:18;;;;;;;;;;;15.90;95.10;;;;;;5092103;28;20014;-71
2023/09/27 01:42:43;;;;;;;;;;;15.90;95.10;;;;;;5091811;28;19909;-71
2023/09/27 01:45:15;;;;;;;;;;;15.90;95.10;;;;;;5094358;28;19994;-71
2023/09/27 01:47:40;;;;;;;;;;;15.90;95.10;;;;;;5091389;28;19922;-71
2023/09/27 01:50:07;;;;;;;;;;;15.80;95.10;;;;;;5096479;28;19908;-71
2023/09/27 01:52:33;;;;;;;;;;;15.90;95.00;;;;;;5092693;28;19908;-71
2023/09/27 01:54:58;;;;;;;;;;;15.80;95.10;;;;;;5090430;28;19999;-71
2023/09/27 01:57:24;;;;;;;;;;;15.80;95.00;;;;;;5091785;28;20003;-71
2023/09/27 01:59:49;;;;;;;;;;;15.80;95.00;;;;;;5115589;27;19977;-71
2023/09/27 02:02:15;;;;;;;;;;;15.80;95.10;;;;;;5091427;28;19913;-71
2023/09/27 02:04:40;;;;;;;;;;;15.80;95.10;;;;;;5090900;28;19957;-71
2023/09/27 02:07:06;;;;;;;;;;;15.80;95.10;;;;;;5092811;28;19912;-71
2023/09/27 02:09:32;;;;;;;;;;;15.80;95.20;;;;;;5094418;28;19961;-71
2023/09/27 02:11:57;;;;;;;;;;;15.80;95.20;;;;;;5098162;28;20376;-71
2023/09/27 02:14:23;;;;;;;;;;;15.80;95.20;;;;;;5098125;28;20008;-71
2023/09/27 02:16:48;;;;;;;;;;;15.80;95.20;;;;;;5090856;28;19912;-71
2023/09/27 02:19:14;;;;;;;;;;;15.80;95.20;;;;;;5098097;28;19981;-71
2023/09/27 02:21:39;;;;;;;;;;;15.70;95.20;;;;;;5089619;28;19969;-71
2023/09/27 02:24:11;;;;;;;;;;;15.70;95.20;;;;;;5090865;28;19935;-71
2023/09/27 02:26:37;;;;;;;;;;;15.70;95.20;;;;;;5090553;28;19928;-71
2023/09/27 02:29:03;;;;;;;;;;;15.70;95.20;;;;;;5096388;28;19958;-71
2023/09/27 02:31:29;;;;;;;;;;;15.70;95.20;;;;;;5090543;28;20360;-71
2023/09/27 02:33:55;;;;;;;;;;;15.70;95.20;;;;;;5089475;28;19954;-71
2023/09/27 02:36:20;;;;;;;;;;;15.70;95.20;;;;;;5091317;28;19952;-71
2023/09/27 02:38:46;;;;;;;;;;;15.70;95.20;;;;;;5090002;28;19967;-71
2023/09/27 02:41:11;;;;;;;;;;;15.60;95.20;;;;;;5090867;28;19927;-71
2023/09/27 02:43:37;;;;;;;;;;;15.60;95.20;;;;;;5083831;28;19917;-71
2023/09/27 02:46:03;;;;;;;;;;;15.60;95.20;;;;;;5099236;28;19908;-71
2023/09/27 02:48:29;;;;;;;;;;;15.60;95.20;;;;;;5091062;28;20010;-71
2023/09/27 02:50:55;;;;;;;;;;;15.60;95.20;;;;;;5090837;28;20007;-71
2023/09/27 02:53:21;;;;;;;;;;;15.60;95.20;;;;;;5090636;28;19938;-71
2023/09/27 02:55:46;;;;;;;;;;;15.60;95.30;;;;;;5090301;28;19912;-71
2023/09/27 02:58:12;;;;;;;;;;;15.60;95.30;;;;;;5087524;28;19917;-71
2023/09/27 03:00:37;;;;;;;;;;;15.60;95.30;;;;;;5087818;28;19919;-71
2023/09/27 03:03:03;;;;;;;;;;;15.60;95.20;;;;;;5090460;28;19912;-71
2023/09/27 03:05:30;;;;;;;;;;;15.60;95.20;;;;;;5097225;28;19912;-71
2023/09/27 03:07:57;;;;;;;;;;;15.50;95.30;;;;;;5093580;28;19923;-71
2023/09/27 03:10:22;;;;;;;;;;;15.50;95.30;;;;;;5090313;28;19922;-72
2023/09/27 03:12:48;;;;;;;;;;;15.50;95.30;;;;;;5090158;28;19912;-71
2023/09/27 03:15:14;;;;;;;;;;;15.50;95.30;;;;;;5090368;28;19908;-71
2023/09/27 03:17:40;;;;;;;;;;;15.50;95.30;;;;;;5088906;28;19999;-71
2023/09/27 03:20:14;;;;;;;;;;;15.50;95.30;;;;;;5090349;28;19919;-71
2023/09/27 03:22:39;;;;;;;;;;;15.50;95.40;;;;;;5090092;28;19916;-71
2023/09/27 03:25:07;;;;;;;;;;;15.40;95.40;;;;;;5090395;28;19919;-71
2023/09/27 03:27:33;;;;;;;;;;;15.40;95.40;;;;;;5089769;28;19995;-71
2023/09/27 03:29:59;;;;;;;;;;;15.40;95.40;;;;;;5094171;28;20297;-71
2023/09/27 03:32:24;;;;;;;;;;;15.40;95.50;;;;;;5092235;28;19916;-71
2023/09/27 03:34:50;;;;;;;;;;;15.40;95.40;;;;;;5089540;28;20392;-71
2023/09/27 03:37:16;;;;;;;;;;;15.40;95.50;;;;;;5092723;28;20372;-71
2023/09/27 03:39:42;;;;;;;;;;;15.40;95.40;;;;;;5091089;28;19912;-71
2023/09/27 03:42:08;;;;;;;;;;;15.40;95.50;;;;;;5088569;28;19908;-71
2023/09/27 03:44:33;;;;;;;;;;;15.40;95.50;;;;;;5089318;28;19909;-71
2023/09/27 03:46:59;;;;;;;;;;;15.40;95.50;;;;;;5089975;28;20226;-71
2023/09/27 03:49:24;;;;;;;;;;;15.30;95.50;;;;;;5093292;28;19916;-71
2023/09/27 03:51:50;;;;;;;;;;;15.30;95.50;;;;;;5089307;28;19916;-71
2023/09/27 03:54:15;;;;;;;;;;;15.30;95.40;;;;;;5089656;28;19908;-71
2023/09/27 03:56:41;;;;;;;;;;;15.30;95.50;;;;;;5089549;28;19912;-71
2023/09/27 03:59:06;;;;;;;;;;;15.30;95.50;;;;;;5092955;28;20388;-71
2023/09/27 04:01:32;;;;;;;;;;;15.30;95.50;;;;;;5087909;28;19916;-71
2023/09/27 04:03:58;;;;;;;;;;;15.30;95.50;;;;;;5089598;28;19919;-71
2023/09/27 04:06:24;;;;;;;;;;;15.30;95.50;;;;;;5097208;28;20673;-71
2023/09/27 04:08:50;;;;;;;;;;;15.30;95.50;;;;;;5089908;28;19961;-71
2023/09/27 04:11:16;;;;;;;;;;;15.30;95.50;;;;;;5089565;28;20000;-71
2023/09/27 04:13:42;;;;;;;;;;;15.30;95.50;;;;;;5093157;28;20057;-71
2023/09/27 04:16:07;;;;;;;;;;;15.20;95.80;;;;;;5093809;28;19915;-71
2023/09/27 04:18:33;;;;;;;;;;;15.20;95.50;;;;;;5096810;28;19907;-71
2023/09/27 04:21:07;;;;;;;;;;;15.20;95.50;;;;;;5092524;28;19923;-71
2023/09/27 04:23:33;;;;;;;;;;;15.20;95.60;;;;;;5090435;28;19912;-71
2023/09/27 04:25:59;;;;;;;;;;;15.20;95.50;;;;;;5093446;28;19912;-71
2023/09/27 04:28:25;;;;;;;;;;;15.20;95.50;;;;;;5093544;28;19921;-71
2023/09/27 04:30:51;;;;;;;;;;;15.20;95.50;;;;;;5093274;28;19912;-71
2023/09/27 04:33:18;;;;;;;;;;;15.20;95.50;;;;;;5126388;27;19912;-71
2023/09/27 04:35:43;;;;;;;;;;;15.20;95.60;;;;;;5093292;28;20361;-71
2023/09/27 04:38:10;;;;;;;;;;;15.10;95.50;;;;;;5093512;28;19914;-71
2023/09/27 04:40:35;;;;;;;;;;;15.10;95.60;;;;;;5094218;28;19916;-71
2023/09/27 04:43:01;;;;;;;;;;;15.10;95.50;;;;;;5090227;28;19999;-71
2023/09/27 04:45:26;;;;;;;;;;;15.10;95.60;;;;;;5089043;28;19916;-71
2023/09/27 04:47:52;;;;;;;;;;;15.10;95.60;;;;;;5092972;28;19915;-71
2023/09/27 04:50:18;;;;;;;;;;;15.10;95.60;;;;;;5093100;28;19912;-71
2023/09/27 04:52:44;;;;;;;;;;;15.10;95.60;;;;;;5092679;28;19908;-71
2023/09/27 04:55:09;;;;;;;;;;;15.10;95.60;;;;;;5093124;28;20258;-71
2023/09/27 04:57:35;;;;;;;;;;;15.10;95.60;;;;;;5101114;28;19934;-71
2023/09/27 05:00:01;;;;;;;;;;;15.10;95.70;;;;;;5092752;28;19915;-71
2023/09/27 05:02:27;;;;;;;;;;;15.00;95.60;;;;;;5096667;28;19912;-71
2023/09/27 05:04:52;;;;;;;;;;;15.00;95.60;;;;;;5094345;28;19907;-71
2023/09/27 05:07:19;;;;;;;;;;;15.00;95.60;;;;;;5104950;28;20417;-71
2023/09/27 05:09:44;;;;;;;;;;;15.00;95.60;;;;;;5094066;28;19908;-71
2023/09/27 05:12:11;;;;;;;;;;;15.00;95.60;;;;;;5095770;28;19966;-71
2023/09/27 05:14:36;;;;;;;;;;;15.00;95.60;;;;;;5092439;28;20295;-71
2023/09/27 05:17:02;;;;;;;;;;;15.00;95.60;;;;;;5100981;28;19930;-71
2023/09/27 05:19:27;;;;;;;;;;;15.00;95.60;;;;;;5093054;28;19912;-71
2023/09/27 05:21:53;;;;;;;;;;;14.90;95.60;;;;;;5090974;28;19955;-71
2023/09/27 05:24:19;;;;;;;;;;;14.90;95.60;;;;;;5090969;28;19912;-71
2023/09/27 05:26:44;;;;;;;;;;;14.90;95.60;;;;;;5092389;28;19942;-71
2023/09/27 05:29:13;;;;;;;;;;;14.90;95.70;;;;;;5094025;28;20284;-71
2023/09/27 05:31:45;;;;;;;;;;;14.90;95.60;;;;;;5103768;28;20241;-71
2023/09/27 05:34:13;;;;;;;;;;;14.90;95.60;;;;;;5091369;28;21808;-71
2023/09/27 05:36:40;;;;;;;;;;;14.90;95.60;;;;;;5092171;28;19908;-71
2023/09/27 05:39:08;;;;;;;;;;;14.90;95.60;;;;;;5097229;28;19961;-71
2023/09/27 05:41:34;;;;;;;;;;;14.90;95.70;;;;;;5091948;28;19947;-71
2023/09/27 05:44:00;;;;;;;;;;;14.90;95.70;;;;;;5084778;28;20462;-71
2023/09/27 05:46:26;;;;;;;;;;;14.90;95.60;;;;;;5090490;28;20015;-71
2023/09/27 05:48:52;;;;;;;;;;;14.90;95.70;;;;;;5095720;28;20364;-71
2023/09/27 05:51:17;;;;;;;;;;;14.90;95.70;;;;;;5092075;28;19908;-71
2023/09/27 05:53:43;;;;;;;;;;;14.80;95.70;;;;;;5090288;28;19916;-71
2023/09/27 05:56:08;;;;;;;;;;;14.90;95.70;;;;;;5097321;28;19907;-71
2023/09/27 05:58:34;;;;;;;;;;;14.80;95.70;;;;;;5094760;28;19915;-71
2023/09/27 06:01:04;;;;;;;;;;;14.80;95.70;;;;;;5092686;28;20335;-71
2023/09/27 06:03:30;;;;;;;;;;;14.80;95.60;;;;;;5090225;28;20011;-71
2023/09/27 06:05:56;;;;;;;;;;;14.80;95.70;;;;;;5091498;28;20034;-71
2023/09/27 06:08:22;;;;;;;;;;;14.80;95.60;;;;;;5091693;28;19912;-71
2023/09/27 06:10:48;;;;;;;;;;;14.80;95.70;;;;;;5091551;28;20387;-71
2023/09/27 06:13:14;;;;;;;;;;;14.80;95.70;;;;;;5091647;28;19908;-71
2023/09/27 06:15:41;;;;;;;;;;;14.80;95.70;;;;;;5090974;28;19956;-71
2023/09/27 06:18:06;;;;;;;;;;;14.80;95.70;;;;;;5091431;28;19936;-71
2023/09/27 06:20:32;;;;;;;;;;;14.80;95.60;;;;;;5090093;28;19939;-71
2023/09/27 06:23:03;;;;;;;;;;;14.80;95.60;;;;;;5091603;28;19912;-71
2023/09/27 06:25:30;;;;;;;;;;;14.80;95.70;;;;;;5091305;28;19912;-71
2023/09/27 06:27:56;;;;;;;;;;;14.80;95.70;;;;;;5091854;28;20361;-71
2023/09/27 06:30:22;;;;;;;;;;;14.80;95.60;;;;;;5094722;28;19923;-71
2023/09/27 06:32:48;;;;;;;;;;;14.80;95.60;;;;;;5091560;28;19915;-71
2023/09/27 06:35:14;;;;;;;;;;;14.80;95.60;;;;;;5089521;28;19999;-71
2023/09/27 06:37:43;;;;;;;;;;;14.90;95.60;;;;;;5091172;28;20229;-71
2023/09/27 06:40:16;;;;;;;;;;;14.90;95.70;;;;;;5091471;28;19962;-71
2023/09/27 06:42:42;;;;;;;;;;;14.90;95.70;;;;;;5090946;28;19908;-71
2023/09/27 06:45:10;;;;;;;;;;;14.90;95.60;;;;;;5093288;28;19995;-71
2023/09/27 06:47:38;;;;;;;;;;;14.90;95.60;;;;;;5091327;28;19908;-71
2023/09/27 06:50:04;;;;;;;;;;;14.90;95.50;;;;;;5091338;28;19908;-71
2023/09/27 06:52:30;;;;;;;;;;;14.90;95.50;;;;;;5091366;28;19920;-71
2023/09/27 06:54:56;;;;;;;;;;;14.90;95.60;;;;;;5091190;28;20483;-71
2023/09/27 06:57:21;;;;;;;;;;;15.00;95.50;;;;;;5099909;28;20014;-71
2023/09/27 06:59:47;;;;;;;;;;;15.00;95.50;;;;;;5091049;28;20462;-71
2023/09/27 07:02:12;;;;;;;;;;;15.00;95.60;;;;;;5083782;28;20403;-71
2023/09/27 07:04:39;;;;;;;;;;;15.00;95.50;;;;;;5090451;28;19945;-71
2023/09/27 07:07:04;;;;;;;;;;;15.00;95.60;;;;;;5089412;28;19931;-71
2023/09/27 07:09:33;;;;;;;;;;;15.00;95.50;;;;;;5092068;28;20389;-71
2023/09/27 07:11:58;;;;;;;;;;;15.10;95.50;;;;;;5081169;28;19972;-71
2023/09/27 07:14:24;;;;;;;;;;;15.10;95.50;;;;;;5090478;28;19998;-71
2023/09/27 07:16:50;;;;;;;;;;;15.10;95.50;;;;;;5090124;28;19908;-71
2023/09/27 07:19:17;;;;;;;;;;;15.10;95.40;;;;;;5092205;28;19993;-71
2023/09/27 07:21:43;;;;;;;;;;;15.10;95.40;;;;;;5089820;28;19913;-71
2023/09/27 07:24:09;;;;;;;;;;;15.10;95.40;;;;;;5090641;28;19912;-71
2023/09/27 07:26:35;;;;;;;;;;;15.20;95.40;;;;;;5098643;28;20334;-71
2023/09/27 07:29:01;;;;;;;;;;;15.20;95.40;;;;;;5090282;28;19915;-71
2023/09/27 07:31:26;;;;;;;;;;;15.20;95.40;;;;;;5091481;28;19915;-71
2023/09/27 07:33:55;;;;;;;;;;;15.20;95.40;;;;;;5096721;28;20475;-71
2023/09/27 07:36:24;;;;;;;;;;;15.20;95.50;;;;;;5089850;28;20394;-71
2023/09/27 07:38:57;;;;;;;;;;;15.20;95.40;;;;;;5094817;28;20004;-71
2023/09/27 07:41:23;;;;;;;;;;;15.20;95.40;;;;;;5098124;28;19912;-71
2023/09/27 07:43:50;;;;;;;;;;;15.30;95.40;;;;;;5081845;28;19908;-71
2023/09/27 07:46:17;;;;;;;;;;;15.30;95.40;;;;;;5080483;28;19912;-71
2023/09/27 07:48:43;;;;;;;;;;;15.30;95.40;;;;;;5089780;28;19961;-71
2023/09/27 07:51:11;;;;;;;;;;;15.30;95.40;;;;;;5089668;28;19916;-71
2023/09/27 07:53:37;;;;;;;;;;;15.30;95.40;;;;;;5097794;28;19912;-71
2023/09/27 07:56:03;;;;;;;;;;;15.30;95.40;;;;;;5089755;28;19916;-71
2023/09/27 07:58:29;;;;;;;;;;;15.40;95.40;;;;;;5089600;28;19918;-71
2023/09/27 08:00:55;;;;;;;;;;;15.40;95.40;;;;;;5089298;28;20391;-71
2023/09/27 08:03:21;;;;;;;;;;;15.50;95.40;;;;;;5088734;28;19969;-71
2023/09/27 08:05:49;;;;;;;;;;;15.50;95.40;;;;;;5088416;28;19917;-71
2023/09/27 08:08:15;;;;;;;;;;;15.60;95.40;;;;;;5089649;28;19908;-71
2023/09/27 08:10:45;;;;;;;;;;;15.60;95.30;;;;;;5089330;28;19966;-71
2023/09/27 08:13:11;;;;;;;;;;;15.60;95.10;;;;;;5088748;28;19916;-71
2023/09/27 08:15:37;;;;;;;;;;;15.70;95.00;;;;;;5084680;28;19920;-71
2023/09/27 08:18:02;;;;;;;;;;;15.80;94.90;;;;;;5089300;28;20413;-71
2023/09/27 08:20:28;;;;;;;;;;;15.90;94.90;;;;;;5088201;28;19916;-71
2023/09/27 08:22:54;;;;;;;;;;;15.90;94.90;;;;;;5088957;28;19918;-71
2023/09/27 08:25:20;;;;;;;;;;;16.00;94.80;;;;;;5089048;28;19916;-71
2023/09/27 08:27:50;;;;;;;;;;;16.00;94.80;;;;;;5097391;28;20466;-71
2023/09/27 08:30:16;;;;;;;;;;;16.10;94.70;;;;;;5089596;28;19970;-71
2023/09/27 08:32:41;;;;;;;;;;;16.20;94.60;;;;;;5093523;28;19912;-71
2023/09/27 08:35:07;;;;;;;;;;;16.20;94.50;;;;;;5092219;28;19909;-71
2023/09/27 08:37:33;;;;;;;;;;;16.30;94.70;;;;;;5098137;28;20443;-71
2023/09/27 08:39:58;;;;;;;;;;;16.30;94.50;;;;;;5089081;28;19958;-71
2023/09/27 08:42:24;;;;;;;;;;;16.40;94.40;;;;;;5088378;28;19943;-71
2023/09/27 08:44:52;;;;;;;;;;;16.40;94.40;;;;;;5089145;28;19955;-71
2023/09/27 08:47:18;;;;;;;;;;;16.50;94.40;;;;;;5094644;28;20272;-71
2023/09/27 08:49:44;;;;;;;;;;;16.50;94.20;;;;;;5089548;28;19908;-71
2023/09/27 08:52:09;;;;;;;;;;;16.50;94.30;;;;;;5089702;28;20674;-71
2023/09/27 08:54:35;;;;;;;;;;;16.60;94.30;;;;;;5089507;28;20325;-71
2023/09/27 08:57:00;;;;;;;;;;;16.60;94.20;;;;;;5089771;28;20630;-71
2023/09/27 08:59:26;;;;;;;;;;;16.60;94.20;;;;;;5093229;28;19908;-71
2023/09/27 09:01:52;;;;;;;;;;;16.60;94.30;;;;;;5092934;28;19931;-71
2023/09/27 09:04:18;;;;;;;;;;;16.70;94.20;;;;;;5093405;28;19915;-71
2023/09/27 09:06:44;;;;;;;;;;;16.70;94.20;;;;;;5093220;28;19913;-71
2023/09/27 09:09:13;;;;;;;;;;;16.70;94.10;;;;;;5098248;28;19997;-71
2023/09/27 09:11:47;;;;;;;;;;;16.80;94.00;;;;;;5109975;28;20378;-71
2023/09/27 09:14:17;;;;;;;;;;;16.80;94.00;;;;;;5091980;28;19908;-71
2023/09/27 09:16:49;;;;;;;;;;;16.90;94.00;;;;;;5098319;28;19912;-71
2023/09/27 09:19:19;;;;;;;;;;;17.00;93.90;;;;;;5093148;28;19916;-71
2023/09/27 09:21:46;;;;;;;;;;;17.00;93.80;;;;;;5092677;28;19916;-71
2023/09/27 09:24:18;;;;;;;;;;;17.00;93.80;;;;;;5092873;28;19908;-71
2023/09/27 09:26:45;;;;;;;;;;;17.00;93.90;;;;;;5100915;28;19920;-71
2023/09/27 09:29:12;;;;;;;;;;;17.00;93.80;;;;;;5092940;28;19919;-71
2023/09/27 09:31:38;;;;;;;;;;;17.10;93.80;;;;;;5092695;28;19962;-71
2023/09/27 09:34:05;;;;;;;;;;;17.10;93.80;;;;;;5085156;28;19979;-71
2023/09/27 09:36:31;;;;;;;;;;;17.10;93.80;;;;;;5098182;28;19908;-71
2023/09/27 09:39:19;;;;;;;;;;;17.20;93.70;;;;;;5100864;28;19911;-71
2023/09/27 09:41:47;;;;;;;;;;;17.20;93.80;;;;;;5096082;28;20402;-71
2023/09/27 09:44:20;;;;;;;;;;;17.30;93.60;;;;;;5099004;28;19930;-71
2023/09/27 09:46:46;;;;;;;;;;;17.30;93.60;;;;;;5092234;28;19912;-71
2023/09/27 09:49:14;;;;;;;;;;;17.40;93.60;;;;;;5097723;28;19935;-71
2023/09/27 09:51:41;;;;;;;;;;;17.40;93.60;;;;;;5094329;28;20086;-71
2023/09/27 09:54:07;;;;;;;;;;;17.50;93.50;;;;;;5090860;28;19992;-71
2023/09/27 09:56:35;;;;;;;;;;;17.50;93.50;;;;;;5092239;28;19912;-71
2023/09/27 09:59:04;;;;;;;;;;;17.60;93.40;;;;;;5084312;28;19947;-71
2023/09/27 10:01:31;;;;;;;;;;;17.60;93.40;;;;;;5090974;28;20007;-71
2023/09/27 10:04:03;;;;;;;;;;;17.70;93.30;;;;;;5096383;28;20308;-71
2023/09/27 10:06:29;;;;;;;;;;;17.70;93.30;;;;;;5091912;28;19912;-71
2023/09/27 10:08:55;;;;;;;;;;;17.70;93.30;;;;;;5096686;28;19912;-71
2023/09/27 10:11:23;;;;;;;;;;;17.70;93.30;;;;;;5090510;28;19918;-71
2023/09/27 10:13:49;;;;;;;;;;;17.70;93.30;;;;;;5095478;28;19912;-71
2023/09/27 10:16:16;;;;;;;;;;;17.80;93.30;;;;;;5091733;28;20302;-71
2023/09/27 10:18:42;;;;;;;;;;;17.80;93.20;;;;;;5090281;28;20344;-71
2023/09/27 10:21:08;;;;;;;;;;;17.80;93.20;;;;;;5091754;28;20003;-71
2023/09/27 10:23:46;;;;;;;;;;;17.90;93.20;;;;;;5090737;28;19920;-71
2023/09/27 10:26:27;;;;;;;;;;;17.90;93.10;;;;;;5092087;28;19919;-71
2023/09/27 10:29:06;;;;;;;;;;;18.00;93.10;;;;;;5091749;28;19966;-71
2023/09/27 10:31:32;;;;;;;;;;;18.10;93.20;;;;;;5123363;27;20560;-71
2023/09/27 10:33:57;;;;;;;;;;;18.10;93.10;;;;;;5094559;28;19912;-71
2023/09/27 10:36:23;;;;;;;;;;;18.20;93.10;;;;;;5096662;28;20352;-71
2023/09/27 10:38:48;;;;;;;;;;;18.20;93.00;;;;;;5093561;28;19908;-71
2023/09/27 10:41:32;;;;;;;;;;;18.30;93.00;;;;;;5096679;28;19996;-71
2023/09/27 10:43:58;;;;;;;;;;;18.40;93.00;;;;;;5095223;28;19912;-71
2023/09/27 10:46:24;;;;;;;;;;;18.50;93.00;;;;;;5104579;28;20024;-71
2023/09/27 10:48:58;;;;;;;;;;;18.50;92.90;;;;;;5086208;28;19938;-71
2023/09/27 10:51:26;;;;;;;;;;;18.60;93.00;;;;;;5082660;28;19916;-71
2023/09/27 10:53:54;;;;;;;;;;;18.70;92.80;;;;;;5098401;28;19955;-71
2023/09/27 10:56:20;;;;;;;;;;;18.70;92.70;;;;;;5088966;28;19931;-71
2023/09/27 10:58:46;;;;;;;;;;;18.80;92.90;;;;;;5081689;28;20349;-71
2023/09/27 11:01:18;;;;;;;;;;;18.90;93.00;;;;;;5090084;28;19927;-70
2023/09/27 11:03:43;;;;;;;;;;;19.00;93.00;;;;;;5098691;28;19914;-70
2023/09/27 11:06:09;;;;;;;;;;;19.10;92.80;;;;;;5085122;28;19908;-70
2023/09/27 11:08:35;;;;;;;;;;;19.20;93.00;;;;;;5112274;27;19912;-70
2023/09/27 11:11:01;;;;;;;;;;;19.30;92.80;;;;;;5101940;27;20612;-70
2023/09/27 11:13:29;;;;;;;;;;;19.40;92.80;;;;;;5084503;28;19912;-70
2023/09/27 11:16:06;;;;;;;;;;;19.40;92.60;;;;;;5097264;28;19966;-70
2023/09/27 11:18:35;;;;;;;;;;;19.40;92.90;;;;;;5089438;28;20380;-70
2023/09/27 11:21:07;;;;;;;;;;;19.50;92.80;;;;;;5098784;28;20014;-70
2023/09/27 11:24:10;;;;;;;;;;;19.60;92.80;;;;;;5090877;28;19912;-70
2023/09/27 11:26:35;;;;;;;;;;;19.70;92.70;;;;;;5045884;28;19920;-70
2023/09/27 11:29:01;;;;;;;;;;;19.70;92.50;;;;;;5078233;28;19977;-70
2023/09/27 11:31:28;;;;;;;;;;;19.80;92.60;;;;;;5089144;28;19916;-70
2023/09/27 11:34:10;;;;;;;;;;;19.80;92.70;;;;;;5075642;28;19930;-70
2023/09/27 11:36:42;;;;;;;;;;;19.90;92.50;;;;;;5093199;28;20386;-70
2023/09/27 11:39:07;;;;;;;;;;;19.90;92.50;;;;;;5076531;28;19934;-71
2023/09/27 11:41:33;;;;;;;;;;;20.00;92.40;;;;;;5084279;28;19920;-71
2023/09/27 11:43:59;;;;;;;;;;;20.10;92.50;;;;;;5079831;28;20004;-71
2023/09/27 11:46:26;;;;;;;;;;;20.10;92.40;;;;;;5075517;28;20011;-71
2023/09/27 11:48:52;;;;;;;;;;;20.20;92.40;;;;;;5078360;28;19951;-70
2023/09/27 11:51:17;;;;;;;;;;;20.30;92.30;;;;;;5087976;28;19971;-70
2023/09/27 11:53:45;;;;;;;;;;;20.30;92.20;;;;;;5076966;28;19940;-70
2023/09/27 11:56:11;;;;;;;;;;;20.30;92.30;;;;;;5072806;28;19916;-70
2023/09/27 11:58:37;;;;;;;;;;;20.30;92.40;;;;;;5085698;28;19933;-70
2023/09/27 12:01:05;;;;;;;;;;;20.40;92.50;;;;;;5080042;28;19916;-71
2023/09/27 12:03:30;;;;;;;;;;;20.40;92.30;;;;;;5089406;28;19945;-71
2023/09/27 12:05:56;;;;;;;;;;;20.50;92.40;;;;;;5085358;28;19916;-71
2023/09/27 12:08:21;;;;;;;;;;;20.50;92.40;;;;;;5111902;27;19939;-71
2023/09/27 12:10:47;;;;;;;;;;;20.50;92.20;;;;;;5084527;28;19965;-71
2023/09/27 12:13:13;;;;;;;;;;;20.60;92.30;;;;;;5084457;28;20383;-71
2023/09/27 12:15:38;;;;;;;;;;;20.60;92.20;;;;;;5095644;28;19912;-71
2023/09/27 12:18:04;;;;;;;;;;;20.60;92.30;;;;;;5075477;28;19912;-71
2023/09/27 12:20:30;;;;;;;;;;;20.70;92.30;;;;;;5085901;28;19927;-71
2023/09/27 12:22:57;;;;;;;;;;;20.80;92.50;;;;;;5082776;28;19997;-71
2023/09/27 12:25:22;;;;;;;;;;;20.90;92.20;;;;;;5083736;28;19927;-71
2023/09/27 12:27:48;;;;;;;;;;;21.00;91.90;;;;;;5081202;28;19912;-70
2023/09/27 12:30:13;;;;;;;;;;;21.00;92.30;;;;;;5087368;28;19912;-70
2023/09/27 12:32:39;;;;;;;;;;;21.20;92.20;;;;;;5088438;28;19924;-70
2023/09/27 12:35:05;;;;;;;;;;;21.20;92.40;;;;;;5094178;28;19968;-70
2023/09/27 12:37:30;;;;;;;;;;;21.20;92.20;;;;;;5091366;28;19923;-70
2023/09/27 12:39:56;;;;;;;;;;;21.20;92.50;;;;;;5087280;28;19916;-70
2023/09/27 12:42:22;;;;;;;;;;;21.30;92.40;;;;;;5093577;28;19991;-71
2023/09/27 12:44:48;;;;;;;;;;;21.40;92.20;;;;;;5087477;28;19915;-70
2023/09/27 12:47:14;;;;;;;;;;;21.50;92.50;;;;;;5089368;28;19953;-70
2023/09/27 12:49:40;;;;;;;;;;;21.50;91.90;;;;;;5091644;28;20404;-70
2023/09/27 12:52:05;;;;;;;;;;;21.60;92.30;;;;;;5094779;28;19920;-70
2023/09/27 12:54:31;;;;;;;;;;;21.70;91.90;;;;;;5091418;28;19916;-70
2023/09/27 12:56:59;;;;;;;;;;;21.80;91.80;;;;;;5093662;28;19916;-70
2023/09/27 12:59:26;;;;;;;;;;;21.80;92.60;;;;;;5092066;28;20240;-70
2023/09/27 13:01:52;;;;;;;;;;;21.90;92.40;;;;;;5086249;28;20002;-70
2023/09/27 13:04:17;;;;;;;;;;;21.90;92.20;;;;;;5077552;28;19992;-70
2023/09/27 13:06:44;;;;;;;;;;;21.90;92.30;;;;;;5090882;28;19966;-71
2023/09/27 13:09:10;;;;;;;;;;;22.00;92.10;;;;;;5096353;28;19908;-71
2023/09/27 13:11:35;;;;;;;;;;;22.00;91.90;;;;;;5092215;28;19915;-71
2023/09/27 13:14:01;;;;;;;;;;;22.00;92.20;;;;;;5080015;28;19908;-71
2023/09/27 13:16:26;;;;;;;;;;;22.00;92.00;;;;;;5086967;28;19919;-71
2023/09/27 13:18:53;;;;;;;;;;;22.00;92.20;;;;;;5077426;28;19909;-71
2023/09/27 13:21:18;;;;;;;;;;;22.00;92.30;;;;;;5089108;28;19923;-71
2023/09/27 13:23:44;;;;;;;;;;;22.10;92.30;;;;;;5091185;28;19908;-71
2023/09/27 13:26:11;;;;;;;;;;;22.10;92.10;;;;;;5092560;28;20011;-71
2023/09/27 13:28:36;;;;;;;;;;;22.00;92.00;;;;;;5091602;28;19927;-71
2023/09/27 13:31:02;;;;;;;;;;;22.10;92.30;;;;;;5076207;28;19916;-71
2023/09/27 13:33:28;;;;;;;;;;;22.00;92.30;;;;;;5091600;28;19942;-71
2023/09/27 13:35:57;;;;;;;;;;;22.00;92.00;;;;;;5100005;28;19939;-71
2023/09/27 13:38:22;;;;;;;;;;;22.00;92.10;;;;;;5095524;28;19935;-71
2023/09/27 13:40:49;;;;;;;;;;;22.00;92.10;;;;;;5091315;28;19944;-71
2023/09/27 13:43:15;;;;;;;;;;;22.00;92.10;;;;;;5078092;28;20358;-71
2023/09/27 13:45:41;;;;;;;;;;;22.00;92.40;;;;;;5096617;28;20004;-71
2023/09/27 13:48:07;;;;;;;;;;;22.00;92.10;;;;;;5090243;28;19922;-71
2023/09/27 13:50:33;;;;;;;;;;;21.90;92.20;;;;;;5090144;28;20011;-71
2023/09/27 13:53:00;;;;;;;;;;;22.00;92.00;;;;;;5090982;28;19912;-71
2023/09/27 13:55:25;;;;;;;;;;;21.90;91.90;;;;;;5084198;28;19912;-71
2023/09/27 13:57:51;;;;;;;;;;;21.90;92.10;;;;;;5081596;28;19912;-71
2023/09/27 14:00:17;;;;;;;;;;;21.90;92.00;;;;;;5091225;28;20390;-71
2023/09/27 14:02:43;;;;;;;;;;;21.90;92.00;;;;;;5089981;28;20490;-71
2023/09/27 14:05:08;;;;;;;;;;;21.90;92.10;;;;;;5090448;28;19912;-71
2023/09/27 14:07:34;;;;;;;;;;;21.90;92.10;;;;;;5095384;28;19952;-71
2023/09/27 14:09:59;;;;;;;;;;;21.90;92.00;;;;;;5090590;28;20019;-71
2023/09/27 14:12:25;;;;;;;;;;;21.90;92.00;;;;;;5086252;28;19958;-71